sensor_id;sensor_type;location;lat;lon;timestamp;pressure;altitude;pressure_sealevel;temperature;humidity
64889;BME280;51386;53.082;8.816;2022-11-15T00:00:57;100952.72;;;13.40;57.61
64889;BME280;51386;53.082;8.816;2022-11-15T00:03:27;100951.06;;;13.39;57.69
64889;BME280;51386;53.082;8.816;2022-11-15T00:06:01;100956.72;;;13.36;57.78
64889;BME280;51386;53.082;8.816;2022-11-15T00:08:29;100956.72;;;13.36;57.77
64889;BME280;51386;53.082;8.816;2022-11-15T00:10:58;100941.44;;;13.32;57.88
64889;BME280;51386;53.082;8.816;2022-11-15T00:13:26;100940.75;;;13.23;58.34
64889;BME280;51386;53.082;8.816;2022-11-15T00:15:57;100945.13;;;13.16;58.69
64889;BME280;51386;53.082;8.816;2022-11-15T00:18:25;100946.31;;;13.14;58.66
64889;BME280;51386;53.082;8.816;2022-11-15T00:20:52;100940.56;;;13.10;58.93
64889;BME280;51386;53.082;8.816;2022-11-15T00:23:19;100942.91;;;13.05;59.12
64889;BME280;51386;53.082;8.816;2022-11-15T00:25:47;100945.31;;;13.00;59.34
64889;BME280;51386;53.082;8.816;2022-11-15T00:28:13;100947.69;;;12.95;59.48
64889;BME280;51386;53.082;8.816;2022-11-15T00:30:40;100960.28;;;12.93;59.57
64889;BME280;51386;53.082;8.816;2022-11-15T00:33:10;100951.88;;;12.89;59.62
64889;BME280;51386;53.082;8.816;2022-11-15T00:35:37;100949.50;;;12.95;59.56
64889;BME280;51386;53.082;8.816;2022-11-15T00:38:03;100952.59;;;12.98;59.49
64889;BME280;51386;53.082;8.816;2022-11-15T00:40:30;100945.31;;;13.00;59.31
64889;BME280;51386;53.082;8.816;2022-11-15T00:42:58;100955.16;;;13.06;58.79
64889;BME280;51386;53.082;8.816;2022-11-15T00:45:25;100953.16;;;13.08;59.15
64889;BME280;51386;53.082;8.816;2022-11-15T00:47:53;100957.44;;;13.09;59.21
64889;BME280;51386;53.082;8.816;2022-11-15T00:50:21;100958.72;;;13.13;58.99
64889;BME280;51386;53.082;8.816;2022-11-15T00:52:48;100957.53;;;13.16;58.84
64889;BME280;51386;53.082;8.816;2022-11-15T00:55:17;100956.97;;;13.20;58.61
64889;BME280;51386;53.082;8.816;2022-11-15T00:57:45;100951.66;;;13.20;58.60
64889;BME280;51386;53.082;8.816;2022-11-15T01:00:13;100950.03;;;13.19;58.71
64889;BME280;51386;53.082;8.816;2022-11-15T01:02:40;100951.66;;;13.20;58.65
64889;BME280;51386;53.082;8.816;2022-11-15T01:05:08;100945.19;;;13.23;58.52
64889;BME280;51386;53.082;8.816;2022-11-15T01:07:36;100949.50;;;13.24;58.45
64889;BME280;51386;53.082;8.816;2022-11-15T01:10:04;100948.47;;;13.25;58.39
64889;BME280;51386;53.082;8.816;2022-11-15T01:12:32;100949.66;;;13.22;58.35
64889;BME280;51386;53.082;8.816;2022-11-15T01:14:59;100941.94;;;13.21;58.50
64889;BME280;51386;53.082;8.816;2022-11-15T01:17:26;100943.75;;;13.20;58.28
64889;BME280;51386;53.082;8.816;2022-11-15T01:19:53;100944.56;;;13.21;58.45
64889;BME280;51386;53.082;8.816;2022-11-15T01:22:20;100941.09;;;13.20;58.18
64889;BME280;51386;53.082;8.816;2022-11-15T01:24:50;100944.38;;;13.22;58.25
64889;BME280;51386;53.082;8.816;2022-11-15T01:27:17;100946.03;;;13.23;58.22
64889;BME280;51386;53.082;8.816;2022-11-15T01:29:44;100942.34;;;13.24;58.13
64889;BME280;51386;53.082;8.816;2022-11-15T01:32:11;100938.03;;;13.17;58.05
64889;BME280;51386;53.082;8.816;2022-11-15T01:34:39;100930.09;;;13.17;58.16
64889;BME280;51386;53.082;8.816;2022-11-15T01:37:06;100929.63;;;13.13;58.46
64889;BME280;51386;53.082;8.816;2022-11-15T01:39:33;100926.00;;;13.14;58.21
64889;BME280;51386;53.082;8.816;2022-11-15T01:42:02;100928.44;;;13.16;58.27
64889;BME280;51386;53.082;8.816;2022-11-15T01:44:43;100920.06;;;13.12;57.99
64889;BME280;51386;53.082;8.816;2022-11-15T01:47:15;100911.50;;;13.10;57.92
64889;BME280;51386;53.082;8.816;2022-11-15T01:49:52;100902.78;;;13.10;58.01
64889;BME280;51386;53.082;8.816;2022-11-15T01:52:26;100904.75;;;13.08;58.03
64889;BME280;51386;53.082;8.816;2022-11-15T01:55:03;100909.94;;;13.01;58.07
64889;BME280;51386;53.082;8.816;2022-11-15T01:57:34;100908.63;;;12.90;58.30
64889;BME280;51386;53.082;8.816;2022-11-15T02:00:04;100904.53;;;12.88;58.52
64889;BME280;51386;53.082;8.816;2022-11-15T02:02:33;100891.69;;;12.85;58.74
64889;BME280;51386;53.082;8.816;2022-11-15T02:05:03;100894.69;;;12.82;58.67
64889;BME280;51386;53.082;8.816;2022-11-15T02:07:32;100893.06;;;12.81;58.71
64889;BME280;51386;53.082;8.816;2022-11-15T02:10:07;100892.03;;;12.82;58.95
64889;BME280;51386;53.082;8.816;2022-11-15T02:12:37;100890.66;;;12.86;58.76
64889;BME280;51386;53.082;8.816;2022-11-15T02:15:06;100881.75;;;12.87;58.89
64889;BME280;51386;53.082;8.816;2022-11-15T02:18:04;100896.22;;;12.91;58.81
64889;BME280;51386;53.082;8.816;2022-11-15T02:21:05;100890.75;;;12.93;58.88
64889;BME280;51386;53.082;8.816;2022-11-15T02:24:25;100884.72;;;12.99;58.80
64889;BME280;51386;53.082;8.816;2022-11-15T02:27:51;100883.63;;;13.08;58.63
64889;BME280;51386;53.082;8.816;2022-11-15T02:30:34;100884.59;;;13.21;58.27
64889;BME280;51386;53.082;8.816;2022-11-15T02:33:21;100871.66;;;13.26;57.88
64889;BME280;51386;53.082;8.816;2022-11-15T02:35:58;100872.91;;;13.30;58.02
64889;BME280;51386;53.082;8.816;2022-11-15T02:38:35;100872.13;;;13.36;58.01
64889;BME280;51386;53.082;8.816;2022-11-15T02:41:13;100870.56;;;13.42;57.56
64889;BME280;51386;53.082;8.816;2022-11-15T02:43:47;100867.97;;;13.48;57.52
64889;BME280;51386;53.082;8.816;2022-11-15T02:46:35;100872.25;;;13.49;57.37
64889;BME280;51386;53.082;8.816;2022-11-15T02:49:23;100879.41;;;13.55;57.41
64889;BME280;51386;53.082;8.816;2022-11-15T02:51:54;100874.38;;;13.61;57.20
64889;BME280;51386;53.082;8.816;2022-11-15T02:54:25;100862.59;;;13.63;57.36
64889;BME280;51386;53.082;8.816;2022-11-15T02:56:56;100866.31;;;13.69;57.29
64889;BME280;51386;53.082;8.816;2022-11-15T03:00:01;100861.19;;;13.67;57.47
64889;BME280;51386;53.082;8.816;2022-11-15T03:03:04;100865.91;;;13.72;57.51
64889;BME280;51386;53.082;8.816;2022-11-15T03:05:42;100864.53;;;13.76;57.63
64889;BME280;51386;53.082;8.816;2022-11-15T03:08:20;100870.09;;;13.81;57.54
64889;BME280;51386;53.082;8.816;2022-11-15T03:11:03;100869.06;;;13.82;57.70
64889;BME280;51386;53.082;8.816;2022-11-15T03:13:38;100865.44;;;13.89;57.70
64889;BME280;51386;53.082;8.816;2022-11-15T03:16:16;100863.25;;;13.93;57.44
64889;BME280;51386;53.082;8.816;2022-11-15T03:18:53;100864.13;;;14.00;57.23
64889;BME280;51386;53.082;8.816;2022-11-15T03:21:24;100857.41;;;14.04;57.91
64889;BME280;51386;53.082;8.816;2022-11-15T03:23:54;100847.88;;;14.09;57.72
64889;BME280;51386;53.082;8.816;2022-11-15T03:26:25;100856.88;;;14.15;57.62
64889;BME280;51386;53.082;8.816;2022-11-15T03:28:57;100864.66;;;14.23;57.47
64889;BME280;51386;53.082;8.816;2022-11-15T03:31:30;100861.88;;;14.31;57.33
64889;BME280;51386;53.082;8.816;2022-11-15T03:34:28;100855.81;;;14.37;57.36
64889;BME280;51386;53.082;8.816;2022-11-15T03:36:56;100843.41;;;14.44;57.19
64889;BME280;51386;53.082;8.816;2022-11-15T03:39:24;100850.97;;;14.47;57.18
64889;BME280;51386;53.082;8.816;2022-11-15T03:42:06;100844.84;;;14.47;57.15
64889;BME280;51386;53.082;8.816;2022-11-15T03:44:45;100843.63;;;14.49;57.23
64889;BME280;51386;53.082;8.816;2022-11-15T03:47:21;100831.00;;;14.51;57.29
64889;BME280;51386;53.082;8.816;2022-11-15T03:49:57;100835.31;;;14.52;57.21
64889;BME280;51386;53.082;8.816;2022-11-15T03:52:26;100841.22;;;14.54;57.41
64889;BME280;51386;53.082;8.816;2022-11-15T03:55:01;100849.78;;;14.56;57.13
64889;BME280;51386;53.082;8.816;2022-11-15T03:57:28;100835.72;;;14.56;57.14
64889;BME280;51386;53.082;8.816;2022-11-15T03:59:55;100828.97;;;14.53;57.55
64889;BME280;51386;53.082;8.816;2022-11-15T04:02:22;100839.78;;;14.52;57.53
64889;BME280;51386;53.082;8.816;2022-11-15T04:04:51;100839.56;;;14.53;57.61
64889;BME280;51386;53.082;8.816;2022-11-15T04:07:18;100834.66;;;14.50;57.53
64889;BME280;51386;53.082;8.816;2022-11-15T04:09:45;100832.22;;;14.49;57.88
64889;BME280;51386;53.082;8.816;2022-11-15T04:12:31;100832.22;;;14.49;57.84
64889;BME280;51386;53.082;8.816;2022-11-15T04:15:00;100832.84;;;14.51;57.81
64889;BME280;51386;53.082;8.816;2022-11-15T04:17:39;100826.72;;;14.50;57.69
64889;BME280;51386;53.082;8.816;2022-11-15T04:20:12;100832.00;;;14.50;57.79
64889;BME280;51386;53.082;8.816;2022-11-15T04:22:59;100827.94;;;14.48;58.06
64889;BME280;51386;53.082;8.816;2022-11-15T04:25:48;100826.94;;;14.49;58.04
64889;BME280;51386;53.082;8.816;2022-11-15T04:28:15;100831.22;;;14.50;57.88
64889;BME280;51386;53.082;8.816;2022-11-15T04:30:43;100828.97;;;14.53;58.12
64889;BME280;51386;53.082;8.816;2022-11-15T04:33:10;100835.91;;;14.54;58.12
64889;BME280;51386;53.082;8.816;2022-11-15T04:35:38;100835.91;;;14.54;58.07
64889;BME280;51386;53.082;8.816;2022-11-15T04:38:09;100835.09;;;14.54;58.19
64889;BME280;51386;53.082;8.816;2022-11-15T04:40:37;100840.41;;;14.60;57.96
64889;BME280;51386;53.082;8.816;2022-11-15T04:43:05;100843.50;;;14.64;58.24
64889;BME280;51386;53.082;8.816;2022-11-15T04:45:32;100847.59;;;14.66;58.08
64889;BME280;51386;53.082;8.816;2022-11-15T04:47:59;100847.59;;;14.73;57.89
64889;BME280;51386;53.082;8.816;2022-11-15T04:50:26;100837.41;;;14.76;57.79
64889;BME280;51386;53.082;8.816;2022-11-15T04:52:54;100836.00;;;14.80;58.11
64889;BME280;51386;53.082;8.816;2022-11-15T04:55:21;100840.09;;;14.83;57.88
64889;BME280;51386;53.082;8.816;2022-11-15T04:57:57;100835.22;;;14.86;57.80
64889;BME280;51386;53.082;8.816;2022-11-15T05:00:27;100834.41;;;14.93;57.77
64889;BME280;51386;53.082;8.816;2022-11-15T05:02:55;100831.34;;;14.96;57.82
64889;BME280;51386;53.082;8.816;2022-11-15T05:05:41;100832.16;;;14.96;57.85
64889;BME280;51386;53.082;8.816;2022-11-15T05:08:09;100833.59;;;14.99;57.67
64889;BME280;51386;53.082;8.816;2022-11-15T05:10:36;100834.22;;;15.01;57.45
64889;BME280;51386;53.082;8.816;2022-11-15T05:13:03;100844.63;;;15.02;57.77
64889;BME280;51386;53.082;8.816;2022-11-15T05:15:30;100846.06;;;15.05;57.80
64889;BME280;51386;53.082;8.816;2022-11-15T05:17:58;100831.78;;;15.06;57.57
64889;BME280;51386;53.082;8.816;2022-11-15T05:20:26;100833.22;;;15.08;57.44
64889;BME280;51386;53.082;8.816;2022-11-15T05:22:54;100835.66;;;15.10;57.40
64889;BME280;51386;53.082;8.816;2022-11-15T05:25:23;100835.25;;;15.13;57.41
64889;BME280;51386;53.082;8.816;2022-11-15T05:27:51;100835.66;;;15.10;57.78
64889;BME280;51386;53.082;8.816;2022-11-15T05:30:18;100834.44;;;15.06;58.17
64889;BME280;51386;53.082;8.816;2022-11-15T05:32:45;100832.81;;;15.05;58.00
64889;BME280;51386;53.082;8.816;2022-11-15T05:35:18;100840.78;;;15.05;58.00
64889;BME280;51386;53.082;8.816;2022-11-15T05:37:47;100826.47;;;15.06;57.80
64889;BME280;51386;53.082;8.816;2022-11-15T05:40:15;100823.44;;;15.09;58.08
64889;BME280;51386;53.082;8.816;2022-11-15T05:42:45;100819.13;;;15.08;58.12
64889;BME280;51386;53.082;8.816;2022-11-15T05:45:12;100823.84;;;15.06;58.24
64889;BME280;51386;53.082;8.816;2022-11-15T05:47:40;100832.00;;;15.04;58.59
64889;BME280;51386;53.082;8.816;2022-11-15T05:50:12;100833.63;;;15.05;58.37
64889;BME280;51386;53.082;8.816;2022-11-15T05:52:39;100819.75;;;15.10;58.40
64889;BME280;51386;53.082;8.816;2022-11-15T05:55:08;100824.66;;;15.13;58.39
64889;BME280;51386;53.082;8.816;2022-11-15T05:57:35;100817.31;;;15.15;58.69
64889;BME280;51386;53.082;8.816;2022-11-15T06:00:06;100819.13;;;15.14;58.51
64889;BME280;51386;53.082;8.816;2022-11-15T06:02:34;100827.13;;;15.21;58.39
64889;BME280;51386;53.082;8.816;2022-11-15T06:05:02;100831.22;;;15.23;58.45
64889;BME280;51386;53.082;8.816;2022-11-15T06:07:40;100830.19;;;15.24;58.33
64889;BME280;51386;53.082;8.816;2022-11-15T06:10:08;100831.22;;;15.30;58.31
64889;BME280;51386;53.082;8.816;2022-11-15T06:12:35;100825.50;;;15.33;58.55
64889;BME280;51386;53.082;8.816;2022-11-15T06:15:05;100834.06;;;15.35;58.41
64889;BME280;51386;53.082;8.816;2022-11-15T06:17:32;100832.03;;;15.37;58.85
64889;BME280;51386;53.082;8.816;2022-11-15T06:19:59;100838.97;;;15.38;58.53
64889;BME280;51386;53.082;8.816;2022-11-15T06:22:26;100834.91;;;15.42;58.42
64889;BME280;51386;53.082;8.816;2022-11-15T06:24:53;100832.84;;;15.44;58.53
64889;BME280;51386;53.082;8.816;2022-11-15T06:27:20;100844.72;;;15.48;58.38
64889;BME280;51386;53.082;8.816;2022-11-15T06:29:47;100844.53;;;15.49;58.63
64889;BME280;51386;53.082;8.816;2022-11-15T06:32:15;100839.41;;;15.48;58.42
64889;BME280;51386;53.082;8.816;2022-11-15T06:34:42;100846.75;;;15.46;58.59
64889;BME280;51386;53.082;8.816;2022-11-15T06:37:09;100844.31;;;15.44;58.82
64889;BME280;51386;53.082;8.816;2022-11-15T06:39:36;100845.75;;;15.47;58.58
64889;BME280;51386;53.082;8.816;2022-11-15T06:42:03;100842.66;;;15.50;58.65
64889;BME280;51386;53.082;8.816;2022-11-15T06:44:31;100848.78;;;15.50;58.63
64889;BME280;51386;53.082;8.816;2022-11-15T06:46:58;100848.59;;;15.52;58.73
64889;BME280;51386;53.082;8.816;2022-11-15T06:49:26;100848.78;;;15.57;58.85
64889;BME280;51386;53.082;8.816;2022-11-15T06:51:53;100849.63;;;15.64;58.66
64889;BME280;51386;53.082;8.816;2022-11-15T06:54:20;100847.38;;;15.68;58.82
64889;BME280;51386;53.082;8.816;2022-11-15T06:56:47;100838.59;;;15.67;58.94
64889;BME280;51386;53.082;8.816;2022-11-15T06:59:14;100846.53;;;15.67;58.67
64889;BME280;51386;53.082;8.816;2022-11-15T07:01:41;100853.50;;;15.68;58.83
64889;BME280;51386;53.082;8.816;2022-11-15T07:04:09;100852.06;;;15.72;58.83
64889;BME280;51386;53.082;8.816;2022-11-15T07:06:37;100854.91;;;15.77;58.69
64889;BME280;51386;53.082;8.816;2022-11-15T07:09:04;100851.66;;;15.82;58.63
64889;BME280;51386;53.082;8.816;2022-11-15T07:11:33;100854.09;;;15.83;58.56
64889;BME280;51386;53.082;8.816;2022-11-15T07:14:00;100855.72;;;15.84;58.70
64889;BME280;51386;53.082;8.816;2022-11-15T07:16:28;100852.06;;;15.85;58.82
64889;BME280;51386;53.082;8.816;2022-11-15T07:18:55;100861.44;;;15.88;58.73
64889;BME280;51386;53.082;8.816;2022-11-15T07:21:22;100861.44;;;15.88;58.95
64889;BME280;51386;53.082;8.816;2022-11-15T07:23:56;100858.59;;;15.89;58.61
64889;BME280;51386;53.082;8.816;2022-11-15T07:26:23;100858.59;;;15.89;59.28
64889;BME280;51386;53.082;8.816;2022-11-15T07:28:50;100857.75;;;15.89;58.96
64889;BME280;51386;53.082;8.816;2022-11-15T07:31:18;100855.94;;;15.89;59.27
64889;BME280;51386;53.082;8.816;2022-11-15T07:33:45;100856.94;;;15.88;59.34
64889;BME280;51386;53.082;8.816;2022-11-15T07:36:12;100856.94;;;15.88;59.52
64889;BME280;51386;53.082;8.816;2022-11-15T07:38:39;100848.56;;;15.91;59.23
64889;BME280;51386;53.082;8.816;2022-11-15T07:41:10;100858.97;;;15.93;59.50
64889;BME280;51386;53.082;8.816;2022-11-15T07:43:37;100851.66;;;15.95;59.72
64889;BME280;51386;53.082;8.816;2022-11-15T07:46:09;100856.53;;;15.98;59.56
64889;BME280;51386;53.082;8.816;2022-11-15T07:48:42;100851.22;;;15.98;59.51
64889;BME280;51386;53.082;8.816;2022-11-15T07:51:12;100848.16;;;16.01;59.86
64889;BME280;51386;53.082;8.816;2022-11-15T07:53:41;100849.16;;;16.06;59.76
64889;BME280;51386;53.082;8.816;2022-11-15T07:56:10;100845.06;;;16.10;59.71
64889;BME280;51386;53.082;8.816;2022-11-15T07:58:37;100850.16;;;16.18;59.63
64889;BME280;51386;53.082;8.816;2022-11-15T08:01:05;100849.09;;;16.26;59.50
64889;BME280;51386;53.082;8.816;2022-11-15T08:03:33;100845.63;;;16.32;59.31
64889;BME280;51386;53.082;8.816;2022-11-15T08:06:00;100847.06;;;16.35;59.08
64889;BME280;51386;53.082;8.816;2022-11-15T08:08:29;100855.03;;;16.35;59.50
64889;BME280;51386;53.082;8.816;2022-11-15T08:10:57;100858.69;;;16.40;59.37
64889;BME280;51386;53.082;8.816;2022-11-15T08:13:26;100858.06;;;16.45;59.14
64889;BME280;51386;53.082;8.816;2022-11-15T08:15:58;100861.69;;;16.50;59.14
64889;BME280;51386;53.082;8.816;2022-11-15T08:18:25;100857.22;;;16.57;59.09
64889;BME280;51386;53.082;8.816;2022-11-15T08:20:52;100847.34;;;16.64;58.69
64889;BME280;51386;53.082;8.816;2022-11-15T08:23:19;100850.00;;;16.71;58.65
64889;BME280;51386;53.082;8.816;2022-11-15T08:25:46;100849.56;;;16.74;58.66
64889;BME280;51386;53.082;8.816;2022-11-15T08:28:16;100847.31;;;16.77;58.29
64889;BME280;51386;53.082;8.816;2022-11-15T08:30:44;100851.16;;;16.81;58.29
64889;BME280;51386;53.082;8.816;2022-11-15T08:33:13;100859.56;;;16.85;58.26
64889;BME280;51386;53.082;8.816;2022-11-15T08:35:42;100858.47;;;16.92;57.94
64889;BME280;51386;53.082;8.816;2022-11-15T08:38:09;100857.41;;;17.00;57.88
64889;BME280;51386;53.082;8.816;2022-11-15T08:40:37;100864.56;;;17.06;57.71
64889;BME280;51386;53.082;8.816;2022-11-15T08:43:05;100861.03;;;17.12;57.70
64889;BME280;51386;53.082;8.816;2022-11-15T08:45:35;100864.69;;;17.18;57.46
64889;BME280;51386;53.082;8.816;2022-11-15T08:48:04;100865.06;;;17.21;57.57
64889;BME280;51386;53.082;8.816;2022-11-15T08:50:31;100864.63;;;17.24;57.56
64889;BME280;51386;53.082;8.816;2022-11-15T08:53:05;100853.75;;;17.26;57.45
64889;BME280;51386;53.082;8.816;2022-11-15T08:55:32;100848.63;;;17.31;57.19
64889;BME280;51386;53.082;8.816;2022-11-15T08:58:03;100860.84;;;17.38;57.08
64889;BME280;51386;53.082;8.816;2022-11-15T09:00:30;100855.09;;;17.41;57.13
64889;BME280;51386;53.082;8.816;2022-11-15T09:02:57;100856.88;;;17.47;56.90
64889;BME280;51386;53.082;8.816;2022-11-15T09:05:26;100858.28;;;17.50;56.82
64889;BME280;51386;53.082;8.816;2022-11-15T09:07:53;100863.22;;;17.53;56.70
64889;BME280;51386;53.082;8.816;2022-11-15T09:10:21;100856.44;;;17.57;56.93
64889;BME280;51386;53.082;8.816;2022-11-15T09:12:48;100859.13;;;17.50;56.56
64889;BME280;51386;53.082;8.816;2022-11-15T09:15:16;100868.16;;;17.49;56.64
64889;BME280;51386;53.082;8.816;2022-11-15T09:17:44;100869.16;;;17.48;56.82
64889;BME280;51386;53.082;8.816;2022-11-15T09:20:11;100862.81;;;17.49;56.74
64889;BME280;51386;53.082;8.816;2022-11-15T09:22:40;100858.94;;;17.45;56.58
64889;BME280;51386;53.082;8.816;2022-11-15T09:25:08;100855.03;;;17.48;56.63
64889;BME280;51386;53.082;8.816;2022-11-15T09:27:37;100853.78;;;17.50;56.77
64889;BME280;51386;53.082;8.816;2022-11-15T09:30:05;100863.63;;;17.50;56.52
64889;BME280;51386;53.082;8.816;2022-11-15T09:32:32;100860.78;;;17.51;56.61
64889;BME280;51386;53.082;8.816;2022-11-15T09:35:06;100864.44;;;17.50;56.75
64889;BME280;51386;53.082;8.816;2022-11-15T09:37:33;100853.84;;;17.44;56.80
64889;BME280;51386;53.082;8.816;2022-11-15T09:40:02;100858.34;;;17.43;57.02
64889;BME280;51386;53.082;8.816;2022-11-15T09:42:47;100856.34;;;17.39;57.16
64889;BME280;51386;53.082;8.816;2022-11-15T09:45:26;100857.34;;;17.44;56.93
64889;BME280;51386;53.082;8.816;2022-11-15T09:48:37;100846.88;;;17.43;57.10
64889;BME280;51386;53.082;8.816;2022-11-15T09:51:16;100852.97;;;17.50;56.98
64889;BME280;51386;53.082;8.816;2022-11-15T09:53:52;100847.66;;;17.56;57.06
64889;BME280;51386;53.082;8.816;2022-11-15T09:56:44;100840.25;;;17.58;56.74
64889;BME280;51386;53.082;8.816;2022-11-15T09:59:35;100832.81;;;17.67;56.69
64889;BME280;51386;53.082;8.816;2022-11-15T10:02:24;100834.81;;;17.72;56.47
64889;BME280;51386;53.082;8.816;2022-11-15T10:04:59;100846.22;;;17.79;56.49
64889;BME280;51386;53.082;8.816;2022-11-15T10:07:37;100848.44;;;17.82;56.35
64889;BME280;51386;53.082;8.816;2022-11-15T10:10:23;100845.28;;;17.91;56.38
64889;BME280;51386;53.082;8.816;2022-11-15T10:12:53;100832.03;;;18.03;55.90
64889;BME280;51386;53.082;8.816;2022-11-15T10:15:22;100837.25;;;18.16;55.82
64889;BME280;51386;53.082;8.816;2022-11-15T10:18:16;100826.06;;;18.25;55.54
64889;BME280;51386;53.082;8.816;2022-11-15T10:20:49;100829.47;;;18.33;55.35
64889;BME280;51386;53.082;8.816;2022-11-15T10:23:20;100829.84;;;18.36;54.95
64889;BME280;51386;53.082;8.816;2022-11-15T10:25:51;100829.25;;;18.34;55.03
64889;BME280;51386;53.082;8.816;2022-11-15T10:28:27;100825.59;;;18.28;55.05
64889;BME280;51386;53.082;8.816;2022-11-15T10:30:56;100821.91;;;18.30;55.16
64889;BME280;51386;53.082;8.816;2022-11-15T10:33:29;100818.59;;;18.34;55.11
64889;BME280;51386;53.082;8.816;2022-11-15T10:36:20;100814.44;;;18.38;54.99
64889;BME280;51386;53.082;8.816;2022-11-15T10:38:58;100804.50;;;18.45;54.85
64889;BME280;51386;53.082;8.816;2022-11-15T10:41:36;100802.88;;;18.44;54.52
64889;BME280;51386;53.082;8.816;2022-11-15T10:44:23;100794.69;;;18.46;54.75
64889;BME280;51386;53.082;8.816;2022-11-15T10:47:26;100784.66;;;18.41;54.70
64889;BME280;51386;53.082;8.816;2022-11-15T10:50:00;100793.13;;;18.56;54.52
64889;BME280;51386;53.082;8.816;2022-11-15T10:52:30;100778.44;;;18.65;54.48
64889;BME280;51386;53.082;8.816;2022-11-15T10:55:05;100773.81;;;18.72;54.25
64889;BME280;51386;53.082;8.816;2022-11-15T10:57:39;100766.56;;;18.91;54.31
64889;BME280;51386;53.082;8.816;2022-11-15T11:00:29;100769.13;;;18.98;54.03
64889;BME280;51386;53.082;8.816;2022-11-15T11:03:00;100769.38;;;19.08;53.74
64889;BME280;51386;53.082;8.816;2022-11-15T11:05:31;100765.78;;;19.14;53.18
64889;BME280;51386;53.082;8.816;2022-11-15T11:08:22;100761.38;;;19.08;53.24
64889;BME280;51386;53.082;8.816;2022-11-15T11:10:53;100758.97;;;19.18;53.27
64889;BME280;51386;53.082;8.816;2022-11-15T11:13:31;100760.84;;;19.29;53.06
64889;BME280;51386;53.082;8.816;2022-11-15T11:16:20;100749.91;;;19.30;52.97
64889;BME280;51386;53.082;8.816;2022-11-15T11:19:02;100744.50;;;19.37;52.83
64889;BME280;51386;53.082;8.816;2022-11-15T11:21:46;100749.16;;;19.53;52.40
64889;BME280;51386;53.082;8.816;2022-11-15T11:24:24;100740.31;;;19.64;52.22
64889;BME280;51386;53.082;8.816;2022-11-15T11:27:22;100739.63;;;19.57;51.31
64889;BME280;51386;53.082;8.816;2022-11-15T11:30:08;100729.75;;;19.57;51.95
64889;BME280;51386;53.082;8.816;2022-11-15T11:33:07;100739.03;;;19.67;52.04
64889;BME280;51386;53.082;8.816;2022-11-15T11:36:07;100726.03;;;19.70;50.81
64889;BME280;51386;53.082;8.816;2022-11-15T11:39:00;100729.63;;;19.64;51.59
64889;BME280;51386;53.082;8.816;2022-11-15T11:41:53;100729.16;;;19.67;51.58
64889;BME280;51386;53.082;8.816;2022-11-15T11:44:33;100720.44;;;19.72;51.32
64889;BME280;51386;53.082;8.816;2022-11-15T11:47:09;100720.31;;;19.78;51.23
64889;BME280;51386;53.082;8.816;2022-11-15T11:49:46;100719.41;;;19.84;51.33
64889;BME280;51386;53.082;8.816;2022-11-15T11:52:21;100715.31;;;19.93;51.16
64889;BME280;51386;53.082;8.816;2022-11-15T11:54:59;100717.97;;;19.93;50.37
64889;BME280;51386;53.082;8.816;2022-11-15T11:57:38;100725.63;;;19.90;50.28
64889;BME280;51386;53.082;8.816;2022-11-15T12:00:18;100719.25;;;19.91;50.28
64889;BME280;51386;53.082;8.816;2022-11-15T12:03:02;100729.41;;;19.77;50.18
64889;BME280;51386;53.082;8.816;2022-11-15T12:05:38;100723.13;;;19.72;50.71
64889;BME280;51386;53.082;8.816;2022-11-15T12:08:23;100715.47;;;19.75;50.74
64889;BME280;51386;53.082;8.816;2022-11-15T12:11:00;100721.97;;;19.79;50.65
64889;BME280;51386;53.082;8.816;2022-11-15T12:13:31;100713.22;;;19.84;50.17
64889;BME280;51386;53.082;8.816;2022-11-15T12:16:11;100729.22;;;19.95;50.25
64889;BME280;51386;53.082;8.816;2022-11-15T12:18:47;100712.84;;;20.03;49.88
64889;BME280;51386;53.082;8.816;2022-11-15T12:21:24;100703.28;;;20.07;50.06
64889;BME280;51386;53.082;8.816;2022-11-15T12:24:02;100711.66;;;20.11;50.03
64889;BME280;51386;53.082;8.816;2022-11-15T12:26:37;100704.94;;;20.08;49.86
64889;BME280;51386;53.082;8.816;2022-11-15T12:29:15;100696.97;;;20.13;49.60
64889;BME280;51386;53.082;8.816;2022-11-15T12:31:49;100694.78;;;20.22;49.39
64889;BME280;51386;53.082;8.816;2022-11-15T12:34:42;100684.91;;;20.22;49.16
64889;BME280;51386;53.082;8.816;2022-11-15T12:37:53;100677.34;;;20.19;49.37
64889;BME280;51386;53.082;8.816;2022-11-15T12:40:34;100679.06;;;20.25;49.40
64889;BME280;51386;53.082;8.816;2022-11-15T12:46:18;100675.84;;;20.23;48.71
64889;BME280;51386;53.082;8.816;2022-11-15T12:48:54;100677.47;;;20.24;48.54
64889;BME280;51386;53.082;8.816;2022-11-15T12:55:01;100675.47;;;20.20;48.96
64889;BME280;51386;53.082;8.816;2022-11-15T12:57:41;100660.38;;;20.14;49.90
64889;BME280;51386;53.082;8.816;2022-11-15T13:00:37;100659.56;;;20.13;49.67
64889;BME280;51386;53.082;8.816;2022-11-15T13:03:28;100655.19;;;20.07;50.38
64889;BME280;51386;53.082;8.816;2022-11-15T13:06:09;100659.09;;;20.16;49.80
64889;BME280;51386;53.082;8.816;2022-11-15T13:08:50;100657.38;;;20.22;49.82
64889;BME280;51386;53.082;8.816;2022-11-15T13:11:54;100637.59;;;20.23;49.45
64889;BME280;51386;53.082;8.816;2022-11-15T13:14:46;100646.53;;;20.29;49.52
64889;BME280;51386;53.082;8.816;2022-11-15T13:17:32;100645.56;;;20.35;49.17
64889;BME280;51386;53.082;8.816;2022-11-15T13:20:21;100634.38;;;20.38;49.01
64889;BME280;51386;53.082;8.816;2022-11-15T13:22:52;100638.69;;;20.39;49.05
64889;BME280;51386;53.082;8.816;2022-11-15T13:25:55;100636.94;;;20.33;48.04
64889;BME280;51386;53.082;8.816;2022-11-15T13:28:32;100632.22;;;20.35;48.05
64889;BME280;51386;53.082;8.816;2022-11-15T13:31:13;100634.28;;;20.33;47.14